Time;durP1;ratioP1;P1;durP2;ratioP2;P2;SDS_P1;SDS_P2;PMS_P1;PMS_P2;Temp;Humidity;BMP_temperature;BMP_pressure;BME280_temperature;BME280_humidity;BME280_pressure;Samples;Min_cycle;Max_cycle;Signal;HPM_P1;HPM_P2
2022/05/20 00:01:50;;;;;;;1.53;1.50;;;;;;;13.62;77.39;100506.72;5010159;28;20201;-66
2022/05/20 00:04:16;;;;;;;2.30;2.10;;;;;;;13.68;77.45;100506.56;5010000;28;20198;-66
2022/05/20 00:06:43;;;;;;;6.60;2.10;;;;;;;13.65;77.56;100504.94;5010335;28;20248;-66
2022/05/20 00:09:11;;;;;;;2.20;2.00;;;;;;;13.50;77.11;100497.59;5010215;28;20212;-66
2022/05/20 00:11:38;;;;;;;1.83;1.80;;;;;;;13.45;76.99;100490.81;5010568;28;20194;-66
2022/05/20 00:14:06;;;;;;;1.80;1.70;;;;;;;13.49;77.45;100498.47;5007349;28;20198;-65
2022/05/20 00:16:34;;;;;;;1.40;1.30;;;;;;;13.42;76.95;100472.88;5010085;28;20655;-66
2022/05/20 00:19:02;;;;;;;1.40;1.40;;;;;;;13.59;76.48;100499.94;5010471;28;20355;-66
2022/05/20 00:21:29;;;;;;;4.17;2.13;;;;;;;13.67;75.48;100492.00;5009920;28;20202;-66
2022/05/20 00:23:55;;;;;;;1.73;1.73;;;;;;;13.68;75.74;100497.13;5010390;28;20202;-66
2022/05/20 00:26:21;;;;;;;2.10;2.00;;;;;;;13.72;75.29;100491.88;5009710;28;20198;-66
2022/05/20 00:28:48;;;;;;;2.10;2.00;;;;;;;13.72;74.97;100494.47;5010401;28;20590;-66
2022/05/20 00:31:17;;;;;;;1.63;1.60;;;;;;;13.59;75.41;100501.66;5010436;28;20246;-66
2022/05/20 00:33:44;;;;;;;1.67;1.57;;;;;;;13.50;76.03;100502.75;5010376;28;20197;-66
2022/05/20 00:36:11;;;;;;;1.87;1.77;;;;;;;13.43;75.87;100498.63;5008622;28;20268;-65
2022/05/20 00:38:38;;;;;;;1.60;1.60;;;;;;;13.33;75.56;100501.44;5009378;28;20213;-66
2022/05/20 00:41:06;;;;;;;1.20;1.20;;;;;;;13.18;75.66;100488.94;5010006;28;20681;-66
2022/05/20 00:43:38;;;;;;;1.87;1.80;;;;;;;13.23;76.29;100498.22;5009968;28;20194;-66
2022/05/20 00:46:07;;;;;;;1.57;1.47;;;;;;;13.25;76.40;100500.78;5010128;28;20197;-66
2022/05/20 00:48:37;;;;;;;4.17;1.63;;;;;;;13.25;76.24;100496.47;5008972;28;20202;-66
2022/05/20 00:51:08;;;;;;;2.40;1.70;;;;;;;13.22;76.25;100493.97;5008560;28;20213;-66
2022/05/20 00:53:40;;;;;;;1.80;1.70;;;;;;;13.18;76.14;100479.47;5008558;28;20194;-66
2022/05/20 00:56:09;;;;;;;1.53;1.43;;;;;;;13.29;75.61;100494.66;5009554;28;20214;-66
2022/05/20 00:58:36;;;;;;;1.80;1.70;;;;;;;13.31;74.75;100496.31;5011838;28;20213;-66
2022/05/20 01:01:04;;;;;;;1.13;1.13;;;;;;;13.30;74.36;100499.78;5013803;28;20202;-66
2022/05/20 01:03:31;;;;;;;1.60;1.60;;;;;;;13.23;74.26;100503.38;5013718;28;20241;-66
2022/05/20 01:06:00;;;;;;;1.53;1.53;;;;;;;13.16;74.64;100506.97;5013679;28;20306;-67
2022/05/20 01:08:30;;;;;;;1.30;1.30;;;;;;;12.87;75.06;100484.44;5012334;28;20241;-66
2022/05/20 01:10:57;;;;;;;2.17;2.03;;;;;;;12.79;75.90;100506.94;5012964;28;20202;-66
2022/05/20 01:13:26;;;;;;;1.30;1.30;;;;;;;12.68;77.07;100516.59;5012245;28;20206;-66
2022/05/20 01:15:53;;;;;;;1.90;1.50;;;;;;;12.52;76.92;100503.22;5012093;28;20233;-66
2022/05/20 01:18:21;;;;;;;1.50;1.40;;;;;;;12.51;77.48;100500.66;5012352;28;20212;-66
2022/05/20 01:20:52;;;;;;;1.60;1.60;;;;;;;12.51;77.44;100501.50;5013086;28;20208;-66
2022/05/20 01:23:22;;;;;;;1.20;1.20;;;;;;;12.44;77.43;100494.78;5012648;28;20721;-66
2022/05/20 01:25:51;;;;;;;1.97;1.90;;;;;;;12.46;77.61;100503.34;5010875;28;20597;-65
2022/05/20 01:28:20;;;;;;;1.70;1.60;;;;;;;12.41;78.08;100497.41;5010046;28;20562;-66
2022/05/20 01:30:50;;;;;;;1.77;1.67;;;;;;;12.43;78.47;100503.41;5010781;28;20208;-66
2022/05/20 01:33:23;;;;;;;1.40;1.40;;;;;;;12.45;78.71;100514.50;5010038;28;20208;-66
2022/05/20 01:35:50;;;;;;;1.43;1.43;;;;;;;12.47;78.35;100515.28;5012568;28;20213;-66
2022/05/20 01:38:17;;;;;;;1.30;1.30;;;;;;;12.43;78.41;100503.41;5007354;28;20582;-65
2022/05/20 01:40:50;;;;;;;1.20;1.20;;;;;;;12.42;79.16;100508.56;5011995;28;20198;-66
2022/05/20 01:43:42;;;;;;;1.50;1.43;;;;;;;12.36;79.51;100512.09;5009005;28;20205;-65
2022/05/20 01:46:19;;;;;;;1.57;1.57;;;;;;;12.32;79.98;100520.75;5007872;28;20198;-66
2022/05/20 01:48:57;;;;;;;2.07;1.40;;;;;;;12.30;80.82;100509.66;5012297;28;20202;-66
2022/05/20 01:51:30;;;;;;;1.50;1.50;;;;;;;12.30;80.75;100507.09;5011256;28;20205;-65
2022/05/20 01:54:03;;;;;;;1.97;1.53;;;;;;;12.27;81.82;100503.72;5010446;28;20190;-65
2022/05/20 01:56:37;;;;;;;1.20;1.20;;;;;;;12.35;81.54;100510.41;5011222;28;20217;-66
2022/05/20 01:59:10;;;;;;;1.37;1.37;;;;;;;12.36;80.82;100513.81;5012931;28;20582;-65
2022/05/20 02:01:41;;;;;;;1.50;1.40;;;;;;;12.33;80.56;100519.03;5011075;28;20208;-66
2022/05/20 02:04:13;;;;;;;1.23;1.23;;;;;;;12.27;81.04;100516.59;5010989;28;20209;-65
2022/05/20 02:06:45;;;;;;;1.47;1.47;;;;;;;12.22;80.73;100508.09;5011906;28;20233;-66
2022/05/20 02:09:18;;;;;;;1.43;1.43;;;;;;;12.17;81.22;100504.78;5011394;28;20211;-66
2022/05/20 02:11:48;;;;;;;1.63;1.53;;;;;;;12.16;80.91;100506.50;5009635;28;20198;-66
2022/05/20 02:14:22;;;;;;;1.30;1.30;;;;;;;12.05;81.72;100498.16;5011683;28;20201;-65
2022/05/20 02:16:55;;;;;;;1.57;1.47;;;;;;;12.09;82.18;100503.19;5009381;28;20232;-66
2022/05/20 02:19:28;;;;;;;1.40;1.40;;;;;;;12.10;82.24;100493.75;5009895;28;20205;-65
2022/05/20 02:21:59;;;;;;;1.43;1.43;;;;;;;12.03;82.75;100481.91;5010720;28;20544;-66
2022/05/20 02:24:29;;;;;;;1.27;1.27;;;;;;;12.12;83.31;100486.03;5008418;28;20203;-65
2022/05/20 02:27:02;;;;;;;1.80;1.70;;;;;;;12.08;83.55;100477.53;5011396;28;20571;-66
2022/05/20 02:29:35;;;;;;;1.40;1.40;;;;;;;12.16;84.04;100493.66;5011044;28;20201;-66
2022/05/20 02:32:08;;;;;;;1.27;1.27;;;;;;;12.16;85.02;100493.66;5009210;28;20202;-65
2022/05/20 02:34:35;;;;;;;1.30;1.27;;;;;;;12.13;85.52;100496.28;5007982;28;20221;-65
2022/05/20 02:37:02;;;;;;;1.53;1.43;;;;;;;12.07;85.68;100504.09;5007939;28;20225;-65
2022/05/20 02:39:29;;;;;;;1.77;1.67;;;;;;;12.04;85.45;100501.59;5009058;28;20198;-65
2022/05/20 02:41:56;;;;;;;2.20;1.53;;;;;;;12.01;84.44;100504.22;5011102;28;20651;-65
2022/05/20 02:44:24;;;;;;;1.50;1.50;;;;;;;11.94;83.67;100502.63;5011369;28;20214;-66
2022/05/20 02:46:51;;;;;;;1.53;1.43;;;;;;;11.92;83.60;100499.25;5010865;28;20202;-65
2022/05/20 02:49:18;;;;;;;1.60;1.60;;;;;;;11.93;83.86;100501.78;5010726;28;20214;-65
2022/05/20 02:51:45;;;;;;;1.20;1.20;;;;;;;11.93;83.25;100495.78;5011051;28;20202;-65
2022/05/20 02:54:12;;;;;;;1.37;1.33;;;;;;;11.94;83.66;100492.34;5007583;28;20585;-65
2022/05/20 02:56:39;;;;;;;1.53;1.47;;;;;;;11.96;83.34;100498.31;5008174;28;20221;-65
2022/05/20 03:04:35;;;;;;;1.60;1.50;;;;;;;12.01;82.83;100499.09;5007982;28;20212;-66
2022/05/20 03:07:03;;;;;;;1.83;1.73;;;;;;;12.02;81.67;100505.91;5010225;28;20224;-65
2022/05/20 03:09:30;;;;;;;1.40;1.40;;;;;;;12.05;81.27;100506.69;5007281;28;20747;-66
2022/05/20 03:11:57;;;;;;;1.43;1.43;;;;;;;12.06;81.06;100508.38;5010075;28;20229;-65
2022/05/20 03:14:24;;;;;;;1.67;1.60;;;;;;;12.05;80.88;100511.00;5010364;28;20198;-66
2022/05/20 03:16:53;;;;;;;1.20;1.20;;;;;;;12.09;80.96;100502.34;5010406;28;20299;-66
2022/05/20 03:19:21;;;;;;;2.87;1.87;;;;;;;12.09;81.17;100502.34;5009466;28;20285;-66
2022/05/20 03:21:48;;;;;;;1.43;1.40;;;;;;;12.13;81.11;100510.84;5007813;28;20238;-66
2022/05/20 03:24:16;;;;;;;1.17;1.17;;;;;;;12.17;80.74;100509.91;5009411;28;20244;-66
2022/05/20 03:26:43;;;;;;;1.30;1.30;;;;;;;12.22;81.08;100515.81;5008055;28;20195;-66
2022/05/20 03:29:10;;;;;;;1.47;1.47;;;;;;;12.22;80.57;100513.25;5008526;28;20251;-66
2022/05/20 03:31:39;;;;;;;1.40;1.30;;;;;;;12.22;80.80;100503.81;5009547;28;20214;-66
2022/05/20 03:34:09;;;;;;;3.83;1.93;;;;;;;12.35;80.56;100510.41;5009273;28;20207;-65
2022/05/20 03:36:38;;;;;;;1.30;1.30;;;;;;;12.48;80.60;100514.44;5007393;28;21132;-66
2022/05/20 03:39:06;;;;;;;1.77;1.67;;;;;;;12.62;80.62;100509.00;5008262;28;20674;-65
2022/05/20 03:41:33;;;;;;;1.70;1.60;;;;;;;12.78;79.59;100504.38;5007726;28;20198;-66
2022/05/20 03:44:00;;;;;;;1.40;1.30;;;;;;;12.94;78.79;100514.31;5008694;28;20697;-65
2022/05/20 03:46:27;;;;;;;1.70;1.60;;;;;;;13.02;78.19;100501.28;5010740;28;20678;-65
2022/05/20 03:48:54;;;;;;;2.10;1.90;;;;;;;13.21;77.76;100505.16;5009424;28;20194;-65
2022/05/20 03:51:22;;;;;;;1.70;1.60;;;;;;;13.47;77.26;100515.66;5007966;28;20257;-65
2022/05/20 03:53:49;;;;;;;1.37;1.37;;;;;;;13.70;76.38;100519.44;5009769;28;20202;-65
2022/05/20 03:56:16;;;;;;;1.77;1.67;;;;;;;13.91;75.71;100513.72;5007038;28;20218;-66
2022/05/20 03:58:43;;;;;;;1.70;1.60;;;;;;;14.12;73.79;100513.13;5010736;28;20206;-66
2022/05/20 04:03:57;;;;;;;5.50;2.00;;;;;;;14.52;71.44;100518.94;5007940;28;20267;-65
2022/05/20 04:06:26;;;;;;;1.53;1.47;;;;;;;14.73;70.63;100526.97;5008376;28;20202;-66
2022/05/20 04:08:53;;;;;;;1.40;1.40;;;;;;;14.88;67.44;100527.34;5008793;28;20206;-66
2022/05/20 04:11:19;;;;;;;1.27;1.27;;;;;;;14.99;67.20;100524.47;5007992;28;20470;-66
2022/05/20 04:13:47;;;;;;;1.40;1.40;;;;;;;15.19;67.03;100527.25;5008544;28;20283;-66
2022/05/20 04:16:16;;;;;;;1.77;1.73;;;;;;;15.39;66.98;100519.72;5008558;28;20238;-66
2022/05/20 04:18:43;;;;;;;1.30;1.30;;;;;;;15.61;67.50;100523.34;5007463;28;20205;-66
2022/05/20 04:21:11;;;;;;;1.53;1.53;;;;;;;15.85;65.59;100520.84;5008135;28;20197;-66
2022/05/20 04:23:40;;;;;;;1.60;1.60;;;;;;;16.04;63.33;100524.47;5006700;28;20233;-66
2022/05/20 04:26:07;;;;;;;1.03;1.03;;;;;;;16.25;62.07;100528.91;5007473;28;20190;-65
2022/05/20 04:28:34;;;;;;;1.30;1.30;;;;;;;16.41;61.99;100535.25;5007643;28;20638;-66
2022/05/20 04:31:03;;;;;;;1.87;1.77;;;;;;;16.60;60.86;100519.91;5005303;28;20680;-66
2022/05/20 04:33:31;;;;;;;1.47;1.37;;;;;;;16.80;59.72;100528.59;5009961;28;20206;-65
2022/05/20 04:35:58;;;;;;;1.30;1.30;;;;;;;17.00;59.59;100527.00;5013317;28;20688;-66
2022/05/20 04:38:25;;;;;;;1.20;1.20;;;;;;;17.20;59.47;100527.06;5014428;28;20576;-66
2022/05/20 04:49:05;;;;;;;1.53;1.43;;;;;;;17.86;56.68;100530.47;5013546;28;20209;-66
2022/05/20 04:51:32;;;;;;;1.53;1.50;;;;;;;18.01;58.19;100529.81;5011978;28;20206;-66
2022/05/20 04:56:45;;;;;;;1.53;1.10;;;;;;;18.34;55.95;100546.53;5013544;28;20213;-66
2022/05/20 04:59:13;;;;;;;1.03;0.97;;;;;;;18.50;55.75;100547.59;5011424;28;20206;-66
2022/05/20 05:01:40;;;;;;;1.80;1.70;;;;;;;18.71;56.13;100538.81;5010676;28;20206;-66
2022/05/20 05:04:07;;;;;;;2.20;2.10;;;;;;;18.94;57.50;100534.31;5011810;28;20575;-66
2022/05/20 05:06:35;;;;;;;2.90;1.70;;;;;;;19.25;55.06;100547.56;5011488;28;20365;-66
2022/05/20 05:09:02;;;;;;;1.60;1.50;;;;;;;19.41;53.84;100530.34;5012169;28;20202;-66
2022/05/20 05:11:29;;;;;;;1.20;1.20;;;;;;;19.56;52.07;100547.81;5012883;28;20297;-66
2022/05/20 05:13:57;;;;;;;1.30;1.20;;;;;;;19.69;51.68;100546.28;5011411;28;20202;-65
2022/05/20 05:16:24;;;;;;;1.10;1.10;;;;;;;19.75;50.61;100556.41;5012449;28;20218;-66
2022/05/20 05:18:51;;;;;;;2.73;1.10;;;;;;;19.80;49.59;100548.38;5014019;28;20296;-66
2022/05/20 05:21:18;;;;;;;1.30;1.30;;;;;;;19.85;49.41;100560.22;5010018;28;20206;-67
2022/05/20 05:23:45;;;;;;;1.07;1.07;;;;;;;19.97;48.18;100563.16;5012590;28;20202;-66
2022/05/20 05:26:12;;;;;;;1.20;1.20;;;;;;;20.09;47.41;100567.72;5012706;28;20197;-66
2022/05/20 05:28:39;;;;;;;1.67;1.57;;;;;;;20.25;47.39;100559.06;5012731;28;20205;-66
2022/05/20 05:31:08;;;;;;;1.33;1.23;;;;;;;20.50;48.05;100569.06;5012880;28;20208;-67
2022/05/20 05:33:35;;;;;;;1.00;1.00;;;;;;;20.67;46.72;100563.81;5010963;28;20207;-66
2022/05/20 05:36:01;;;;;;;1.33;1.00;;;;;;;20.72;49.26;100547.91;5009805;28;20222;-67
2022/05/20 05:38:28;;;;;;;3.07;1.03;;;;;;;20.78;47.56;100551.03;5013546;28;20205;-67
2022/05/20 05:40:55;;;;;;;0.90;0.90;;;;;;;20.62;47.92;100552.78;5012916;28;20196;-67
2022/05/20 05:43:22;;;;;;;0.90;0.83;;;;;;;20.71;46.56;100551.47;5009649;28;20217;-65
2022/05/20 05:45:49;;;;;;;1.23;1.23;;;;;;;20.77;47.60;100552.00;5013467;28;20200;-67
2022/05/20 05:48:17;;;;;;;8.93;2.00;;;;;;;20.86;47.58;100551.47;5012996;28;20290;-65
2022/05/20 05:50:45;;;;;;;0.87;0.87;;;;;;;20.96;46.43;100562.25;5012739;28;20203;-66
2022/05/20 05:53:14;;;;;;;1.13;1.13;;;;;;;21.15;47.40;100551.69;5013937;28;20578;-65
2022/05/20 05:55:44;;;;;;;2.30;1.33;;;;;;;21.39;47.33;100555.50;5013618;28;20688;-65
2022/05/20 05:58:11;;;;;;;1.43;1.33;;;;;;;21.62;48.08;100555.06;5013481;28;20218;-64
2022/05/20 06:00:38;;;;;;;1.70;1.60;;;;;;;21.51;45.43;100547.00;5012242;28;20663;-64
2022/05/20 06:03:06;;;;;;;1.03;1.03;;;;;;;21.37;46.07;100549.56;5013500;28;20275;-66
2022/05/20 06:05:35;;;;;;;2.93;1.67;;;;;;;21.31;46.71;100542.06;5011697;28;20200;-66
2022/05/20 06:08:02;;;;;;;1.67;1.47;;;;;;;21.46;45.80;100541.19;5009564;28;20227;-66
2022/05/20 06:10:29;;;;;;;1.27;1.27;;;;;;;21.46;45.54;100530.75;5012669;28;20199;-65
2022/05/20 06:12:56;;;;;;;1.70;1.30;;;;;;;21.73;47.16;100537.03;5012131;28;20683;-65
2022/05/20 06:15:23;;;;;;;1.23;1.23;;;;;;;21.90;44.80;100549.97;5009403;28;20563;-65
2022/05/20 06:17:50;;;;;;;1.00;1.00;;;;;;;22.02;46.67;100551.00;5012264;28;20598;-66
2022/05/20 06:20:18;;;;;;;1.53;1.00;;;;;;;22.21;43.21;100548.97;5008864;28;20209;-66
2022/05/20 06:22:46;;;;;;;1.00;1.00;;;;;;;22.36;45.63;100550.66;5008670;28;20212;-66
2022/05/20 06:25:14;;;;;;;1.00;1.00;;;;;;;22.59;43.72;100551.88;5007276;28;20578;-65
2022/05/20 06:27:42;;;;;;;1.27;0.90;;;;;;;22.61;43.41;100539.56;5013356;28;20205;-65
2022/05/20 06:30:12;;;;;;;1.30;1.30;;;;;;;22.74;42.12;100552.75;5012416;28;20212;-65
2022/05/20 06:32:39;;;;;;;0.90;0.90;;;;;;;22.81;44.11;100551.44;5011323;28;20593;-65
2022/05/20 06:40:44;;;;;;;1.07;1.07;;;;;;;23.06;43.46;100545.50;5012581;28;20199;-66
2022/05/20 06:43:13;;;;;;;2.20;1.00;;;;;;;23.23;43.54;100537.44;5011578;28;20213;-66
2022/05/20 06:45:40;;;;;;;2.67;1.43;;;;;;;23.38;44.26;100536.44;5012202;28;20258;-66
2022/05/20 06:48:07;;;;;;;1.20;1.20;;;;;;;23.60;43.33;100539.34;5012252;28;20582;-66
2022/05/20 06:50:37;;;;;;;3.30;1.23;;;;;;;23.78;44.86;100540.72;5012335;28;20208;-67
2022/05/20 06:53:13;;;;;;;2.63;1.00;;;;;;;23.75;42.19;100534.88;5010134;28;20201;-66
2022/05/20 06:55:40;;;;;;;2.27;1.33;;;;;;;23.82;42.35;100542.22;5008680;28;20232;-68
2022/05/20 06:58:07;;;;;;;3.00;1.17;;;;;;;23.77;39.60;100546.09;5010006;28;20221;-67
2022/05/20 07:00:34;;;;;;;1.10;1.10;;;;;;;23.84;40.78;100550.81;5012048;28;20209;-66
2022/05/20 07:03:02;;;;;;;1.00;1.00;;;;;;;23.99;41.02;100534.06;5011191;28;20735;-67
2022/05/20 07:05:30;;;;;;;1.37;1.07;;;;;;;24.30;41.05;100537.22;5010408;28;20198;-66
2022/05/20 07:07:57;;;;;;;0.83;0.83;;;;;;;24.49;39.50;100537.66;5010469;28;20224;-66
2022/05/20 07:10:26;;;;;;;0.90;0.90;;;;;;;24.55;38.99;100505.78;5010881;28;20585;-66
2022/05/20 07:12:53;;;;;;;0.90;0.90;;;;;;;24.52;37.74;100537.44;5009984;28;20578;-68
2022/05/20 07:15:20;;;;;;;1.13;1.13;;;;;;;24.41;39.87;100534.72;5012342;28;20208;-66
2022/05/20 07:17:48;;;;;;;0.80;0.80;;;;;;;24.39;39.15;100526.13;5011843;28;20229;-66
2022/05/20 07:20:16;;;;;;;1.13;1.03;;;;;;;24.34;38.14;100526.44;5011581;28;20285;-65
2022/05/20 07:22:43;;;;;;;1.73;1.10;;;;;;;24.48;38.94;100528.97;5011540;28;20198;-65
2022/05/20 07:25:10;;;;;;;2.93;0.80;;;;;;;24.51;36.83;100535.78;5011758;28;20217;-66
2022/05/20 07:27:39;;;;;;;1.40;1.30;;;;;;;24.65;38.45;100516.44;5011722;28;20214;-66
2022/05/20 07:30:08;;;;;;;0.80;0.80;;;;;;;24.96;36.60;100529.09;5011828;28;20202;-66
2022/05/20 07:32:35;;;;;;;0.80;0.80;;;;;;;25.16;36.60;100528.50;5011915;28;20194;-66
2022/05/20 07:35:02;;;;;;;1.00;0.90;;;;;;;25.37;36.05;100523.44;5009116;28;20204;-66
2022/05/20 07:37:28;;;;;;;0.87;0.87;;;;;;;25.50;36.00;100524.25;5011878;28;20214;-66
2022/05/20 07:39:55;;;;;;;1.60;0.80;;;;;;;25.44;37.16;100522.03;5011746;28;20229;-66
2022/05/20 07:42:22;;;;;;;0.90;0.90;;;;;;;25.54;34.50;100523.91;5011690;28;20206;-66
2022/05/20 07:44:51;;;;;;;1.37;0.97;;;;;;;25.64;35.36;100518.81;5011912;28;20253;-67
2022/05/20 07:47:20;;;;;;;1.00;0.90;;;;;;;25.46;35.55;100520.16;5010345;28;20210;-66
2022/05/20 07:49:47;;;;;;;1.43;0.80;;;;;;;25.54;37.42;100515.19;5012209;28;20205;-66
2022/05/20 07:53:19;;;;;;;1.13;0.87;;;;;;;25.63;34.86;100522.38;5011654;28;20670;-66
2022/05/20 07:55:07;;;;;;;1.23;1.13;;;;;;;25.77;35.58;100509.06;5010353;28;20202;-66
2022/05/20 07:57:35;;;;;;;0.80;0.80;;;;;;;25.92;35.96;100518.41;5007062;28;20304;-70
2022/05/20 08:00:06;;;;;;;0.60;0.60;;;;;;;26.31;35.18;100518.94;5011581;28;20202;-66
2022/05/20 08:02:34;;;;;;;5.00;1.60;;;;;;;26.61;35.11;100519.19;5011885;28;20578;-66
2022/05/20 08:05:01;;;;;;;0.90;0.90;;;;;;;26.50;31.65;100519.19;5011578;28;20206;-65
2022/05/20 08:07:31;;;;;;;0.70;0.70;;;;;;;26.61;35.59;100513.94;5010865;28;20359;-65
2022/05/20 08:09:59;;;;;;;1.00;1.00;;;;;;;26.56;34.29;100509.03;5011810;28;20291;-65
2022/05/20 08:12:27;;;;;;;9.53;1.00;;;;;;;26.57;32.39;100513.34;5010347;28;20220;-65
2022/05/20 08:14:54;;;;;;;0.67;0.67;;;;;;;26.89;36.05;100508.16;5011352;28;20193;-66
2022/05/20 08:17:24;;;;;;;1.23;1.00;;;;;;;26.88;31.27;100503.03;5011451;28;20224;-66
2022/05/20 08:19:52;;;;;;;1.10;1.00;;;;;;;27.07;31.44;100501.44;5010610;28;20194;-71
2022/05/20 08:22:22;;;;;;;0.63;0.53;;;;;;;27.12;32.43;100496.63;5009999;28;20598;-65
2022/05/20 08:24:52;;;;;;;0.73;0.73;;;;;;;27.19;34.58;100486.44;5011621;28;20679;-66
2022/05/20 08:27:19;;;;;;;0.97;0.97;;;;;;;27.29;31.06;100489.13;5011468;28;20261;-66
2022/05/20 08:29:46;;;;;;;0.50;0.50;;;;;;;27.43;31.25;100488.84;5011613;28;20209;-66
2022/05/20 08:32:15;;;;;;;0.60;0.60;;;;;;;27.57;31.45;100459.56;5011455;28;20216;-65
2022/05/20 08:34:44;;;;;;;0.50;0.50;;;;;;;27.85;29.03;100481.81;5011216;28;20209;-65
2022/05/20 08:37:11;;;;;;;0.50;0.50;;;;;;;27.84;29.21;100473.06;5011009;28;20264;-65
2022/05/20 08:39:38;;;;;;;0.67;0.67;;;;;;;27.91;28.77;100474.22;5008110;28;20195;-65
2022/05/20 08:42:11;;;;;;;1.90;0.80;;;;;;;27.97;30.64;100462.31;5011319;28;20200;-65
2022/05/20 08:44:38;;;;;;;0.97;0.97;;;;;;;28.11;34.41;100465.44;5011456;28;20206;-66
2022/05/20 08:47:16;;;;;;;1.80;0.67;;;;;;;28.20;32.21;100470.91;5011584;28;20190;-65
2022/05/20 08:49:44;;;;;;;0.73;0.73;;;;;;;28.41;33.42;100461.13;5011094;28;20632;-66
2022/05/20 08:52:11;;;;;;;1.03;0.67;;;;;;;28.70;28.12;100472.63;5011241;28;20213;-65
2022/05/20 08:54:39;;;;;;;0.83;0.80;;;;;;;28.58;29.39;100463.13;5010866;28;20212;-65
2022/05/20 08:57:23;;;;;;;0.90;0.70;;;;;;;28.47;29.84;100457.94;5010569;28;20225;-65
2022/05/20 08:59:50;;;;;;;1.30;1.20;;;;;;;28.36;28.77;100451.00;5011289;28;20686;-65
2022/05/20 09:02:17;;;;;;;5.17;1.80;;;;;;;28.36;29.08;100450.16;5010761;28;20202;-65
2022/05/20 09:04:45;;;;;;;1.10;1.00;;;;;;;28.25;28.01;100444.97;5007249;28;20209;-65
2022/05/20 09:07:15;;;;;;;2.13;1.23;;;;;;;28.44;31.40;100440.59;5010475;28;20617;-65
2022/05/20 09:09:46;;;;;;;7.50;1.20;;;;;;;28.40;28.53;100443.66;5007703;28;20261;-66
2022/05/20 09:12:29;;;;;;;0.50;0.50;;;;;;;28.49;27.85;100440.19;5008911;28;20209;-66
2022/05/20 09:17:48;;;;;;;1.33;1.10;;;;;;;28.58;29.89;100432.28;5008410;28;20232;-65
2022/05/20 09:20:20;;;;;;;1.80;0.90;;;;;;;28.85;27.79;100428.19;5012403;28;20279;-65
2022/05/20 09:22:59;;;;;;;0.60;0.60;;;;;;;29.15;26.12;100434.16;5014566;28;20202;-66
2022/05/20 09:25:28;;;;;;;1.13;0.90;;;;;;;29.46;26.33;100428.75;5013843;28;20202;-66
2022/05/20 09:28:19;;;;;;;0.60;0.60;;;;;;;29.72;27.26;100418.41;5013864;28;20202;-66
2022/05/20 09:30:50;;;;;;;0.73;0.73;;;;;;;29.70;28.41;100410.59;5011597;28;20589;-66
2022/05/20 09:33:21;;;;;;;0.80;0.80;;;;;;;29.63;28.31;100422.72;5013455;28;20202;-66
2022/05/20 09:35:56;;;;;;;0.70;0.70;;;;;;;29.72;27.35;100402.53;5011546;28;20666;-66
2022/05/20 09:38:32;;;;;;;0.50;0.50;;;;;;;29.95;30.50;100404.69;5014254;28;20220;-66
2022/05/20 09:41:00;;;;;;;0.67;0.67;;;;;;;29.95;29.63;100404.69;5008220;28;20662;-65
2022/05/20 09:43:29;;;;;;;1.47;0.60;;;;;;;29.96;26.46;100398.44;5013014;28;20202;-65
2022/05/20 09:45:58;;;;;;;0.87;0.87;;;;;;;30.08;25.71;100399.09;5011973;28;20593;-64
2022/05/20 09:48:39;;;;;;;0.93;0.93;;;;;;;30.03;25.02;100390.75;5012298;28;20205;-64
2022/05/20 09:51:15;;;;;;;2.73;1.20;;;;;;;29.93;28.45;100380.22;5010808;28;20225;-67
2022/05/20 09:53:44;;;;;;;1.67;1.57;;;;;;;29.92;27.81;100388.31;5014024;28;20590;-66
2022/05/20 09:56:22;;;;;;;0.70;0.60;;;;;;;29.98;24.71;100387.72;5014631;28;20679;-66
2022/05/20 09:59:20;;;;;;;0.47;0.47;;;;;;;29.95;23.16;100385.38;5014336;28;20578;-68
2022/05/20 10:01:56;;;;;;;0.60;0.60;;;;;;;29.94;24.47;100371.31;5014329;28;20598;-66
2022/05/20 10:04:33;;;;;;;0.80;0.80;;;;;;;30.02;25.81;100371.41;5010458;28;20208;-66
2022/05/20 10:07:04;;;;;;;2.63;0.80;;;;;;;30.03;23.31;100370.41;5008726;28;20229;-66
2022/05/20 10:09:35;;;;;;;0.60;0.60;;;;;;;29.90;23.92;100375.22;5013284;28;20221;-67
2022/05/20 10:12:07;;;;;;;0.77;0.77;;;;;;;30.12;26.38;100369.53;5011938;28;20198;-66
2022/05/20 10:14:44;;;;;;;2.70;1.33;;;;;;;30.12;28.34;100369.53;5012538;28;20202;-67
2022/05/20 10:17:34;;;;;;;1.77;1.70;;;;;;;29.90;27.68;100359.34;5009418;28;20271;-67
2022/05/20 10:20:08;;;;;;;0.70;0.70;;;;;;;29.93;27.94;100367.00;5010572;28;20201;-67
2022/05/20 10:22:48;;;;;;;1.50;0.70;;;;;;;29.81;27.26;100354.91;5009358;28;20198;-66
2022/05/20 10:25:24;;;;;;;0.80;0.60;;;;;;;29.92;30.74;100357.38;5011285;28;20210;-66
2022/05/20 10:27:58;;;;;;;0.60;0.60;;;;;;;29.94;24.80;100347.50;5012550;28;20225;-67
2022/05/20 10:33:18;;;;;;;1.17;0.63;;;;;;;29.88;25.69;100350.75;5013267;28;20199;-67
2022/05/20 10:36:01;;;;;;;1.33;1.23;;;;;;;29.88;25.43;100350.75;5013391;28;20674;-67
2022/05/20 10:39:00;;;;;;;1.60;0.60;;;;;;;29.85;25.43;100348.41;5012977;28;20686;-66
2022/05/20 10:41:43;;;;;;;0.67;0.67;;;;;;;29.76;28.76;100343.13;5009444;28;20658;-67
2022/05/20 10:50:16;;;;;;;0.90;0.90;;;;;;;29.61;24.66;100334.81;5012855;28;20233;-66
2022/05/20 10:53:08;;;;;;;1.13;0.73;;;;;;;29.55;24.73;100322.19;5011396;28;20182;-66
2022/05/20 10:55:55;;;;;;;0.67;0.60;;;;;;;29.61;25.71;100326.88;5007872;28;20209;-66
2022/05/20 10:58:47;;;;;;;0.70;0.70;;;;;;;29.66;25.65;100327.31;5012858;28;20665;-66
2022/05/20 11:01:22;;;;;;;0.53;0.53;;;;;;;29.42;21.95;100319.88;5012758;28;20297;-66
2022/05/20 11:04:22;;;;;;;0.90;0.67;;;;;;;29.26;23.10;100321.44;5013275;28;20201;-66
2022/05/20 11:07:14;;;;;;;0.77;0.43;;;;;;;29.42;24.46;100319.88;5010037;28;20272;-66
2022/05/20 11:09:53;;;;;;;1.20;0.70;;;;;;;29.44;24.00;100309.13;4980548;28;20198;-66
2022/05/20 11:12:29;;;;;;;0.60;0.60;;;;;;;29.54;22.24;100309.94;4990835;28;20202;-66
2022/05/20 11:15:17;;;;;;;0.63;0.60;;;;;;;29.68;26.20;100297.09;5003832;28;20204;-66
2022/05/20 11:18:18;;;;;;;1.63;0.57;;;;;;;29.53;23.59;100292.44;4995833;28;20762;-67
2022/05/20 11:21:06;;;;;;;0.60;0.60;;;;;;;29.12;23.92;100301.56;4998050;28;20585;-66
2022/05/20 11:23:50;;;;;;;0.80;0.80;;;;;;;29.11;26.68;100295.44;4994656;28;20209;-67
2022/05/20 11:26:42;;;;;;;4.33;3.93;;;;;;;29.06;24.99;100279.22;4999233;28;20202;-67
2022/05/20 11:29:42;;;;;;;5.97;5.47;;;;;;;29.17;23.61;100294.91;4997145;28;20286;-66
2022/05/20 11:32:12;;;;;;;1.13;1.13;;;;;;;28.95;25.42;100287.28;4993748;28;20203;-66
2022/05/20 11:35:02;;;;;;;0.60;0.60;;;;;;;28.88;22.69;100280.94;4994830;28;20209;-66
2022/05/20 11:37:47;;;;;;;0.80;0.80;;;;;;;28.93;22.83;100273.41;4985478;28;20217;-65
2022/05/20 11:40:26;;;;;;;3.20;0.87;;;;;;;28.75;22.42;100248.72;4987054;28;20671;-66
2022/05/20 11:43:16;;;;;;;0.90;0.90;;;;;;;28.93;23.46;100262.84;4994922;28;20206;-65
2022/05/20 11:45:56;;;;;;;0.50;0.50;;;;;;;29.12;23.79;100249.59;4999592;28;20591;-66
2022/05/20 11:48:46;;;;;;;0.60;0.60;;;;;;;29.31;24.66;100261.06;4990044;28;20257;-66
2022/05/20 11:51:42;;;;;;;0.50;0.50;;;;;;;29.21;24.31;100262.91;4999112;28;21227;-66
2022/05/20 11:54:16;;;;;;;0.60;0.60;;;;;;;29.22;25.90;100231.06;4996362;28;20205;-66
2022/05/20 11:56:47;;;;;;;0.60;0.60;;;;;;;29.43;24.98;100260.78;5003120;28;20193;-65
2022/05/20 11:59:19;;;;;;;0.53;0.53;;;;;;;29.45;23.71;100252.69;5001147;28;20219;-66
2022/05/20 12:01:49;;;;;;;0.40;0.40;;;;;;;29.54;22.81;100251.81;4996305;28;20205;-67
2022/05/20 12:04:20;;;;;;;0.60;0.60;;;;;;;29.49;21.90;100240.84;5000214;28;20674;-66
2022/05/20 12:06:52;;;;;;;0.50;0.50;;;;;;;29.28;22.37;100241.06;4991711;28;20223;-66
2022/05/20 12:09:37;;;;;;;0.60;0.60;;;;;;;29.27;23.12;100233.31;4990052;28;20207;-67
2022/05/20 12:12:28;;;;;;;0.70;0.70;;;;;;;29.44;24.10;100228.06;4990177;28;20221;-67
2022/05/20 12:15:01;;;;;;;0.57;0.57;;;;;;;29.51;24.51;100223.88;4989133;28;20202;-67
2022/05/20 12:17:34;;;;;;;3.23;0.73;;;;;;;29.48;25.34;100220.69;4990477;28;20202;-66
2022/05/20 12:26:40;;;;;;;5.07;0.70;;;;;;;29.71;24.69;100221.94;4967187;28;20206;-66